createdAt,value
2023-02-02T00:01:51.120Z,99.03
2023-02-02T00:04:22.042Z,100.00
2023-02-02T00:06:49.253Z,100.00
2023-02-02T00:09:17.858Z,100.00
2023-02-02T00:11:45.683Z,100.00
2023-02-02T00:14:13.246Z,100.00
2023-02-02T00:16:39.798Z,100.00
2023-02-02T00:19:17.611Z,100.00
2023-02-02T00:21:45.070Z,100.00
2023-02-02T00:24:13.411Z,100.00
2023-02-02T00:26:41.931Z,100.00
2023-02-02T00:29:14.522Z,100.00
2023-02-02T00:31:41.168Z,100.00
2023-02-02T00:34:07.835Z,100.00
2023-02-02T00:36:34.410Z,100.00
2023-02-02T00:39:01.065Z,100.00
2023-02-02T00:41:27.670Z,100.00
2023-02-02T00:44:12.880Z,100.00
2023-02-02T00:46:41.343Z,100.00
2023-02-02T00:49:08.784Z,100.00
2023-02-02T00:51:36.820Z,100.00
2023-02-02T00:54:04.793Z,100.00
2023-02-02T00:56:31.456Z,100.00
2023-02-02T00:58:58.106Z,100.00
2023-02-02T01:01:25.001Z,100.00
2023-02-02T01:03:52.034Z,100.00
2023-02-02T01:06:19.211Z,100.00
2023-02-02T01:08:46.250Z,100.00
2023-02-02T01:11:12.830Z,100.00
2023-02-02T01:13:39.672Z,100.00
2023-02-02T01:16:07.431Z,100.00
2023-02-02T01:18:34.053Z,100.00
2023-02-02T01:21:04.179Z,100.00
2023-02-02T01:23:31.070Z,100.00
2023-02-02T01:25:59.591Z,100.00
2023-02-02T01:28:27.440Z,100.00
2023-02-02T01:30:54.718Z,100.00
2023-02-02T01:33:23.088Z,100.00
2023-02-02T01:35:51.966Z,100.00
2023-02-02T01:38:19.484Z,100.00
2023-02-02T01:40:51.453Z,100.00
2023-02-02T01:43:27.932Z,100.00
2023-02-02T01:45:56.260Z,100.00
2023-02-02T01:48:30.483Z,100.00
2023-02-02T01:51:01.290Z,100.00
2023-02-02T01:53:29.568Z,100.00
2023-02-02T01:55:56.821Z,100.00
2023-02-02T01:58:28.131Z,100.00
2023-02-02T02:00:55.995Z,100.00
2023-02-02T02:03:26.371Z,100.00
2023-02-02T02:06:05.772Z,100.00
2023-02-02T02:08:47.054Z,100.00
2023-02-02T02:11:14.551Z,100.00
2023-02-02T02:14:00.343Z,100.00
2023-02-02T02:16:36.032Z,100.00
2023-02-02T02:19:15.551Z,100.00
2023-02-02T02:22:37.536Z,100.00
2023-02-02T02:26:07.195Z,100.00
2023-02-02T02:28:56.717Z,100.00
2023-02-02T02:31:23.761Z,100.00
2023-02-02T02:34:03.797Z,100.00
2023-02-02T02:36:45.124Z,100.00
2023-02-02T02:39:24.360Z,100.00
2023-02-02T02:41:58.544Z,100.00
2023-02-02T02:44:27.506Z,100.00
2023-02-02T02:46:55.179Z,100.00
2023-02-02T02:49:21.834Z,100.00
2023-02-02T02:51:53.499Z,100.00
2023-02-02T02:54:36.038Z,100.00
2023-02-02T02:57:39.396Z,100.00
2023-02-02T03:00:20.854Z,100.00
2023-02-02T03:03:01.520Z,100.00
2023-02-02T03:05:51.842Z,100.00
2023-02-02T03:08:49.130Z,100.00
2023-02-02T03:11:16.585Z,100.00
2023-02-02T03:13:43.577Z,100.00
2023-02-02T03:16:11.027Z,100.00
2023-02-02T03:18:38.383Z,100.00
2023-02-02T03:21:05.207Z,100.00
2023-02-02T03:23:31.814Z,100.00
2023-02-02T03:25:59.641Z,100.00
2023-02-02T03:28:27.566Z,100.00
2023-02-02T03:30:55.119Z,100.00
2023-02-02T03:33:21.915Z,100.00
2023-02-02T03:35:48.463Z,100.00
2023-02-02T03:38:15.043Z,100.00
2023-02-02T03:40:41.770Z,100.00
2023-02-02T03:43:08.819Z,100.00
2023-02-02T03:45:35.665Z,100.00
2023-02-02T03:48:05.896Z,100.00
2023-02-02T03:50:33.311Z,100.00
2023-02-02T03:53:00.335Z,100.00
2023-02-02T03:55:27.021Z,100.00
2023-02-02T03:57:53.656Z,100.00
2023-02-02T04:00:20.677Z,100.00
2023-02-02T04:02:47.277Z,100.00
2023-02-02T04:05:13.919Z,100.00
2023-02-02T04:07:40.563Z,100.00
2023-02-02T04:10:07.389Z,100.00
2023-02-02T04:12:33.935Z,100.00
2023-02-02T04:15:00.493Z,100.00
2023-02-02T04:17:27.133Z,100.00
2023-02-02T04:19:58.130Z,100.00
2023-02-02T04:22:26.153Z,100.00
2023-02-02T04:24:52.951Z,100.00
2023-02-02T04:27:19.700Z,100.00
2023-02-02T04:29:46.374Z,100.00
2023-02-02T04:32:17.520Z,100.00
2023-02-02T04:34:44.920Z,100.00
2023-02-02T04:37:12.072Z,100.00
2023-02-02T04:39:38.767Z,100.00
2023-02-02T04:42:05.446Z,100.00
2023-02-02T04:44:32.105Z,100.00
2023-02-02T04:46:58.710Z,100.00
2023-02-02T04:49:25.312Z,100.00
2023-02-02T04:51:51.925Z,100.00
2023-02-02T04:54:18.536Z,100.00
2023-02-02T04:56:45.131Z,100.00
2023-02-02T04:59:11.762Z,100.00
2023-02-02T05:01:38.339Z,100.00
2023-02-02T05:04:05.128Z,100.00
2023-02-02T05:06:31.757Z,100.00
2023-02-02T05:08:58.388Z,100.00
2023-02-02T05:11:24.970Z,100.00
2023-02-02T05:13:53.786Z,100.00
2023-02-02T05:16:21.710Z,100.00
2023-02-02T05:18:52.688Z,100.00
2023-02-02T05:21:19.842Z,100.00
2023-02-02T05:23:46.772Z,100.00
2023-02-02T05:26:17.136Z,100.00
2023-02-02T05:28:43.740Z,100.00
2023-02-02T05:31:10.389Z,100.00
2023-02-02T05:33:37.135Z,100.00
2023-02-02T05:36:04.757Z,100.00
2023-02-02T05:38:31.631Z,100.00
2023-02-02T05:40:58.352Z,100.00
2023-02-02T05:43:26.411Z,100.00
2023-02-02T05:45:53.612Z,100.00
2023-02-02T05:48:20.362Z,100.00
2023-02-02T05:51:07.713Z,100.00
2023-02-02T05:53:34.287Z,100.00
2023-02-02T05:56:00.933Z,100.00
2023-02-02T05:58:28.168Z,100.00
2023-02-02T06:00:56.618Z,100.00
2023-02-02T06:03:23.760Z,100.00
2023-02-02T06:05:50.463Z,100.00
2023-02-02T06:08:17.100Z,100.00
2023-02-02T06:10:44.035Z,100.00
2023-02-02T06:13:11.026Z,100.00
2023-02-02T06:15:37.814Z,100.00
2023-02-02T06:18:06.720Z,100.00
2023-02-02T06:20:34.793Z,100.00
2023-02-02T06:23:01.386Z,100.00
2023-02-02T06:25:28.267Z,100.00
2023-02-02T06:27:59.011Z,100.00
2023-02-02T06:30:25.966Z,100.00
2023-02-02T06:32:53.174Z,100.00
2023-02-02T06:35:20.136Z,100.00
2023-02-02T06:37:46.734Z,100.00
2023-02-02T06:40:13.839Z,100.00
2023-02-02T06:42:40.959Z,100.00
2023-02-02T06:45:08.290Z,100.00
2023-02-02T06:47:34.935Z,100.00
2023-02-02T06:50:01.502Z,100.00
2023-02-02T06:52:28.282Z,100.00
2023-02-02T06:54:54.931Z,100.00
2023-02-02T06:57:21.576Z,100.00
2023-02-02T06:59:48.153Z,100.00
2023-02-02T07:02:14.769Z,100.00
2023-02-02T07:04:41.358Z,100.00
2023-02-02T07:07:08.033Z,100.00
2023-02-02T07:09:35.675Z,100.00
2023-02-02T07:12:02.495Z,100.00
2023-02-02T07:14:29.026Z,100.00
2023-02-02T07:16:55.598Z,100.00
2023-02-02T07:19:22.201Z,100.00
2023-02-02T07:21:48.856Z,100.00
2023-02-02T07:24:15.580Z,100.00
2023-02-02T07:26:42.256Z,100.00
2023-02-02T07:29:13.229Z,100.00
2023-02-02T07:31:40.455Z,100.00
2023-02-02T07:34:07.144Z,100.00
2023-02-02T07:36:33.953Z,100.00
2023-02-02T07:39:03.915Z,100.00
2023-02-02T07:41:31.167Z,100.00
2023-02-02T07:43:57.730Z,100.00
2023-02-02T07:46:24.397Z,100.00
2023-02-02T07:48:54.899Z,100.00
2023-02-02T07:51:21.893Z,100.00
2023-02-02T07:53:50.427Z,100.00
2023-02-02T07:56:22.351Z,100.00
2023-02-02T07:58:52.216Z,100.00
2023-02-02T08:01:20.540Z,100.00
2023-02-02T08:03:47.238Z,100.00
2023-02-02T08:06:25.527Z,100.00
2023-02-02T08:08:52.315Z,100.00
2023-02-02T08:11:21.968Z,100.00
2023-02-02T08:13:57.232Z,100.00
2023-02-02T08:16:25.193Z,100.00
2023-02-02T08:18:51.917Z,100.00
2023-02-02T08:21:19.405Z,100.00
2023-02-02T08:23:46.534Z,100.00
2023-02-02T08:26:18.932Z,99.64
2023-02-02T08:28:48.636Z,98.09
2023-02-02T08:31:19.280Z,97.46
2023-02-02T08:33:46.324Z,96.51
2023-02-02T08:36:14.913Z,96.54
2023-02-02T08:38:41.913Z,97.12
2023-02-02T08:41:10.352Z,96.89
2023-02-02T08:43:37.437Z,96.65
2023-02-02T08:46:05.730Z,96.36
2023-02-02T08:48:34.651Z,96.35
2023-02-02T08:51:01.913Z,95.58
2023-02-02T08:53:29.175Z,95.51
2023-02-02T08:56:04.824Z,94.52
2023-02-02T08:58:31.805Z,94.39
2023-02-02T09:01:12.791Z,93.75
2023-02-02T09:03:40.330Z,94.36
2023-02-02T09:06:08.925Z,94.56
2023-02-02T09:08:35.789Z,94.20
2023-02-02T09:11:11.182Z,94.02
2023-02-02T09:13:39.610Z,91.69
2023-02-02T09:16:10.080Z,91.81
2023-02-02T09:18:37.139Z,92.34
2023-02-02T09:21:06.637Z,92.58
2023-02-02T09:23:35.369Z,92.25
2023-02-02T09:26:28.453Z,92.95
2023-02-02T09:29:02.660Z,92.73
2023-02-02T09:31:31.251Z,91.03
2023-02-02T09:34:02.091Z,91.55
2023-02-02T09:36:29.328Z,92.68
2023-02-02T09:38:55.914Z,92.35
2023-02-02T09:41:37.870Z,92.02
2023-02-02T09:44:19.950Z,91.24
2023-02-02T09:47:01.294Z,91.72
2023-02-02T09:49:49.415Z,91.63
2023-02-02T09:52:23.186Z,91.56
2023-02-02T09:54:52.305Z,91.12
2023-02-02T09:57:25.517Z,90.54
2023-02-02T09:59:54.113Z,90.39
2023-02-02T10:02:45.785Z,89.24
2023-02-02T10:05:18.763Z,90.15
2023-02-02T10:07:50.441Z,88.74
2023-02-02T10:10:28.831Z,88.82
2023-02-02T10:13:22.253Z,88.50
2023-02-02T10:16:17.238Z,87.26
2023-02-02T10:18:56.135Z,87.90
2023-02-02T10:21:33.551Z,87.54
2023-02-02T10:24:02.897Z,86.92
2023-02-02T10:26:51.760Z,85.96
2023-02-02T10:29:24.221Z,85.96
2023-02-02T10:32:12.798Z,86.10
2023-02-02T10:35:13.620Z,86.47
2023-02-02T10:38:09.809Z,86.62
2023-02-02T10:40:39.631Z,87.50
2023-02-02T10:43:46.137Z,87.68
2023-02-02T10:46:19.915Z,87.53
2023-02-02T10:48:48.112Z,87.77
2023-02-02T10:51:27.766Z,87.78
2023-02-02T10:53:57.543Z,87.73
2023-02-02T10:56:34.711Z,87.62
2023-02-02T10:59:14.752Z,87.46
2023-02-02T11:01:41.401Z,87.04
2023-02-02T11:04:29.098Z,85.86
2023-02-02T11:06:56.234Z,85.60
2023-02-02T11:09:32.856Z,85.34
2023-02-02T11:12:33.059Z,86.14
2023-02-02T11:15:06.715Z,87.06
2023-02-02T11:17:34.810Z,86.84
2023-02-02T11:20:01.843Z,85.82
2023-02-02T11:22:38.463Z,86.08
2023-02-02T11:25:07.967Z,85.96
2023-02-02T11:27:43.191Z,86.06
2023-02-02T11:30:27.545Z,85.49
2023-02-02T11:32:55.725Z,85.21
2023-02-02T11:35:24.818Z,85.12
2023-02-02T11:38:09.756Z,84.82
2023-02-02T11:40:40.866Z,82.96
2023-02-02T11:43:21.030Z,83.79
2023-02-02T11:46:00.209Z,84.67
2023-02-02T11:48:32.517Z,85.49
2023-02-02T11:51:01.324Z,85.72
2023-02-02T11:53:37.871Z,86.10
2023-02-02T11:56:18.195Z,85.96
2023-02-02T11:58:53.383Z,86.03
2023-02-02T12:01:28.334Z,86.11
2023-02-02T12:03:57.356Z,86.31
2023-02-02T12:06:44.184Z,86.05
2023-02-02T12:09:19.658Z,84.78
2023-02-02T12:12:09.820Z,85.12
2023-02-02T12:14:45.347Z,85.53
2023-02-02T12:17:21.897Z,85.15
2023-02-02T12:20:07.034Z,85.13
2023-02-02T12:22:36.467Z,85.87
2023-02-02T12:25:15.375Z,85.60
2023-02-02T12:28:27.584Z,85.75
2023-02-02T12:31:03.271Z,86.47
2023-02-02T12:33:29.856Z,86.48
2023-02-02T12:36:22.362Z,86.41
2023-02-02T12:39:25.869Z,86.38
2023-02-02T12:42:23.997Z,87.25
2023-02-02T12:44:59.239Z,86.50
2023-02-02T12:47:25.761Z,86.32
2023-02-02T12:50:04.725Z,86.15
2023-02-02T12:52:53.771Z,86.35
2023-02-02T12:55:36.806Z,86.61
2023-02-02T12:58:18.691Z,86.11
2023-02-02T13:01:05.214Z,86.24
2023-02-02T13:03:56.529Z,86.28
2023-02-02T13:06:45.024Z,86.16
2023-02-02T13:09:21.586Z,86.67
2023-02-02T13:11:53.689Z,86.03
2023-02-02T13:14:25.840Z,85.25
2023-02-02T13:16:57.151Z,84.71
2023-02-02T13:19:32.949Z,84.21
2023-02-02T13:22:02.142Z,83.41
2023-02-02T13:24:31.920Z,83.06
2023-02-02T13:27:02.067Z,82.71
2023-02-02T13:29:47.300Z,82.61
2023-02-02T13:32:30.904Z,82.95
2023-02-02T13:35:13.289Z,83.01
2023-02-02T13:37:47.952Z,82.56
2023-02-02T13:40:23.738Z,82.66
2023-02-02T13:43:11.488Z,82.56
2023-02-02T13:45:48.797Z,82.58
2023-02-02T13:48:31.458Z,83.26
2023-02-02T13:51:10.166Z,82.54
2023-02-02T13:53:54.798Z,82.70
2023-02-02T13:56:40.585Z,82.44
2023-02-02T13:59:16.061Z,81.15
2023-02-02T14:01:48.482Z,82.17
2023-02-02T14:04:26.083Z,82.53
2023-02-02T14:07:07.081Z,82.44
2023-02-02T14:09:37.519Z,82.49
2023-02-02T14:12:10.860Z,82.43
2023-02-02T14:14:39.887Z,82.54
2023-02-02T14:17:30.107Z,82.57
2023-02-02T14:20:01.651Z,82.98
2023-02-02T14:22:50.821Z,82.97
2023-02-02T14:25:29.967Z,82.63
2023-02-02T14:27:59.473Z,82.33
2023-02-02T14:30:32.804Z,83.13
2023-02-02T14:33:23.135Z,82.71
2023-02-02T14:35:49.680Z,82.55
2023-02-02T14:39:09.666Z,82.92
2023-02-02T14:42:20.376Z,82.19
2023-02-02T14:45:07.915Z,82.48
2023-02-02T14:48:01.267Z,83.41
2023-02-02T14:50:40.559Z,83.55
2023-02-02T14:53:16.109Z,83.38
2023-02-02T14:56:05.537Z,83.29
2023-02-02T14:58:36.839Z,83.30
2023-02-02T15:01:24.233Z,82.85
2023-02-02T15:03:54.004Z,83.28
2023-02-02T15:06:34.300Z,82.60
2023-02-02T15:09:23.455Z,82.49
2023-02-02T15:12:01.152Z,82.85
2023-02-02T15:14:55.942Z,82.53
2023-02-02T15:17:33.373Z,82.52
2023-02-02T15:20:24.739Z,82.12
2023-02-02T15:22:55.308Z,81.39
2023-02-02T15:25:32.261Z,81.66
2023-02-02T15:28:13.916Z,80.73
2023-02-02T15:30:45.294Z,80.62
2023-02-02T15:33:40.152Z,80.35
2023-02-02T15:36:14.151Z,80.50
2023-02-02T15:38:43.101Z,81.20
2023-02-02T15:41:32.709Z,80.52
2023-02-02T15:44:00.171Z,80.93
2023-02-02T15:46:35.139Z,80.16
2023-02-02T15:49:33.170Z,79.50
2023-02-02T15:52:03.868Z,79.59
2023-02-02T15:54:35.333Z,80.00
2023-02-02T15:57:02.822Z,79.56
2023-02-02T15:59:38.480Z,80.20
2023-02-02T16:02:23.166Z,79.84
2023-02-02T16:04:49.844Z,79.68
2023-02-02T16:07:26.395Z,79.81
2023-02-02T16:09:53.464Z,79.78
2023-02-02T16:12:23.494Z,80.24
2023-02-02T16:14:53.641Z,80.69
2023-02-02T16:17:32.500Z,80.29
2023-02-02T16:20:08.966Z,80.55
2023-02-02T16:22:37.147Z,80.91
2023-02-02T16:25:09.890Z,80.22
2023-02-02T16:27:37.772Z,80.30
2023-02-02T16:30:08.362Z,80.21
2023-02-02T16:32:38.845Z,80.96
2023-02-02T16:35:27.623Z,80.47
2023-02-02T16:38:31.583Z,80.26
2023-02-02T16:41:09.343Z,80.52
2023-02-02T16:43:38.561Z,80.21
2023-02-02T16:46:16.537Z,81.02
2023-02-02T16:48:56.901Z,80.79
2023-02-02T16:51:26.916Z,80.64
2023-02-02T16:54:10.670Z,80.61
2023-02-02T16:56:40.147Z,80.23
2023-02-02T16:59:22.006Z,80.86
2023-02-02T17:01:52.816Z,81.39
2023-02-02T17:04:24.767Z,81.22
2023-02-02T17:06:53.677Z,81.75
2023-02-02T17:09:35.488Z,81.64
2023-02-02T17:12:14.258Z,81.54
2023-02-02T17:15:00.118Z,81.69
2023-02-02T17:17:27.455Z,81.83
2023-02-02T17:19:54.273Z,82.02
2023-02-02T17:22:24.633Z,81.75
2023-02-02T17:24:52.370Z,81.99
2023-02-02T17:27:27.436Z,81.59
2023-02-02T17:29:55.383Z,81.84
2023-02-02T17:32:23.740Z,82.26
2023-02-02T17:34:50.593Z,81.78
2023-02-02T17:37:17.187Z,82.17
2023-02-02T17:39:43.844Z,82.46
2023-02-02T17:42:27.265Z,82.12
2023-02-02T17:44:54.046Z,81.71
2023-02-02T17:47:20.625Z,81.59
2023-02-02T17:49:47.200Z,81.84
2023-02-02T17:52:13.960Z,82.52
2023-02-02T17:54:40.571Z,83.24
2023-02-02T17:57:07.279Z,82.95
2023-02-02T17:59:33.881Z,83.54
2023-02-02T18:02:01.525Z,84.04
2023-02-02T18:04:28.576Z,84.43
2023-02-02T18:06:55.150Z,85.55
2023-02-02T18:09:21.754Z,85.85
2023-02-02T18:11:49.766Z,86.53
2023-02-02T18:14:16.469Z,86.79
2023-02-02T18:16:43.021Z,86.95
2023-02-02T18:19:10.349Z,86.86
2023-02-02T18:21:37.427Z,87.25
2023-02-02T18:24:04.317Z,87.20
2023-02-02T18:26:32.573Z,87.33
2023-02-02T18:28:59.811Z,87.00
2023-02-02T18:31:27.511Z,86.85
2023-02-02T18:33:54.571Z,87.08
2023-02-02T18:36:23.576Z,87.42
2023-02-02T18:38:51.369Z,87.15
2023-02-02T18:41:21.445Z,87.05
2023-02-02T18:43:48.357Z,87.55
2023-02-02T18:46:16.533Z,86.82
2023-02-02T18:48:43.648Z,87.06
2023-02-02T18:51:18.169Z,86.58
2023-02-02T18:53:46.650Z,87.06
2023-02-02T18:56:14.720Z,86.99
2023-02-02T18:58:41.537Z,86.50
2023-02-02T19:01:16.983Z,86.62
2023-02-02T19:03:48.272Z,87.09
2023-02-02T19:06:33.597Z,86.67
2023-02-02T19:09:00.187Z,86.91
2023-02-02T19:11:34.636Z,86.63
2023-02-02T19:14:01.498Z,86.49
2023-02-02T19:16:31.238Z,86.98
2023-02-02T19:19:04.367Z,87.24
2023-02-02T19:21:31.050Z,86.92
2023-02-02T19:23:59.545Z,86.94
2023-02-02T19:26:28.104Z,87.29
2023-02-02T19:29:12.931Z,86.86
2023-02-02T19:31:40.138Z,87.24
2023-02-02T19:34:12.448Z,87.43
2023-02-02T19:36:42.103Z,87.09
2023-02-02T19:39:16.055Z,87.32
2023-02-02T19:41:43.293Z,87.34
2023-02-02T19:44:16.929Z,87.80
2023-02-02T19:46:46.227Z,87.94
2023-02-02T19:49:34.317Z,87.73
2023-02-02T19:52:03.909Z,87.27
2023-02-02T19:54:35.884Z,88.23
2023-02-02T19:57:26.713Z,87.48
2023-02-02T19:59:54.806Z,88.06
2023-02-02T20:02:36.739Z,87.89
2023-02-02T20:05:18.750Z,87.69
2023-02-02T20:07:46.224Z,88.00
2023-02-02T20:10:16.160Z,88.46
2023-02-02T20:12:42.798Z,88.90
2023-02-02T20:15:32.326Z,88.78
2023-02-02T20:18:01.067Z,89.77
2023-02-02T20:20:38.896Z,89.01
2023-02-02T20:23:30.301Z,88.80
2023-02-02T20:25:57.883Z,88.47
2023-02-02T20:28:34.085Z,89.10
2023-02-02T20:31:05.825Z,89.56
2023-02-02T20:33:33.199Z,90.27
2023-02-02T20:36:02.401Z,89.41
2023-02-02T20:38:37.459Z,89.00
2023-02-02T20:41:05.846Z,89.95
2023-02-02T20:43:32.709Z,90.10
2023-02-02T20:45:59.337Z,90.68
2023-02-02T20:48:27.596Z,90.12
2023-02-02T20:50:54.201Z,90.39
2023-02-02T20:53:20.808Z,90.88
2023-02-02T20:55:47.375Z,90.78
2023-02-02T20:58:14.053Z,90.93
2023-02-02T21:00:40.756Z,90.31
2023-02-02T21:03:07.386Z,90.51
2023-02-02T21:05:34.002Z,91.58
2023-02-02T21:08:00.651Z,92.11
2023-02-02T21:10:28.356Z,91.97
2023-02-02T21:12:55.624Z,92.43
2023-02-02T21:15:22.974Z,93.06
2023-02-02T21:17:50.009Z,93.44
2023-02-02T21:20:17.279Z,93.42
2023-02-02T21:22:43.939Z,94.10
2023-02-02T21:25:11.246Z,93.62
2023-02-02T21:27:41.086Z,93.89
2023-02-02T21:30:10.860Z,93.97
2023-02-02T21:32:37.668Z,94.21
2023-02-02T21:35:06.411Z,93.78
2023-02-02T21:37:35.788Z,94.17
2023-02-02T21:40:11.395Z,94.89
2023-02-02T21:42:38.213Z,94.83
2023-02-02T21:45:27.114Z,94.60
2023-02-02T21:47:59.109Z,94.67
2023-02-02T21:50:28.896Z,95.48
2023-02-02T21:53:12.899Z,95.48
2023-02-02T21:55:40.738Z,96.21
2023-02-02T21:58:34.124Z,96.45
2023-02-02T22:01:18.055Z,96.59
2023-02-02T22:03:46.851Z,96.62
2023-02-02T22:06:51.898Z,96.52
2023-02-02T22:09:39.164Z,96.83
2023-02-02T22:12:32.598Z,96.99
2023-02-02T22:15:04.842Z,96.68
2023-02-02T22:17:41.890Z,96.40
2023-02-02T22:20:34.015Z,96.95
2023-02-02T22:23:03.033Z,97.45
2023-02-02T22:25:37.270Z,96.93
2023-02-02T22:28:12.921Z,97.72
2023-02-02T22:30:41.539Z,97.64
2023-02-02T22:33:11.131Z,97.35
2023-02-02T22:35:38.701Z,97.83
2023-02-02T22:38:06.252Z,97.72
2023-02-02T22:40:33.128Z,98.44
2023-02-02T22:43:05.672Z,98.57
2023-02-02T22:45:32.245Z,98.90
2023-02-02T22:47:59.126Z,99.41
2023-02-02T22:50:28.595Z,98.62
2023-02-02T22:52:55.621Z,100.00
2023-02-02T22:55:22.664Z,100.00
2023-02-02T22:57:49.242Z,100.00
2023-02-02T23:00:22.109Z,100.00
2023-02-02T23:02:49.135Z,100.00
2023-02-02T23:05:16.946Z,100.00
2023-02-02T23:07:44.265Z,100.00
2023-02-02T23:10:13.460Z,100.00
2023-02-02T23:12:41.221Z,100.00
2023-02-02T23:15:08.472Z,100.00
2023-02-02T23:17:37.829Z,100.00
2023-02-02T23:20:10.618Z,100.00
2023-02-02T23:22:37.255Z,100.00
2023-02-02T23:25:04.491Z,100.00
2023-02-02T23:27:31.123Z,100.00
2023-02-02T23:29:57.708Z,100.00
2023-02-02T23:32:24.425Z,100.00
2023-02-02T23:34:51.060Z,100.00
2023-02-02T23:37:17.837Z,100.00
2023-02-02T23:39:44.439Z,100.00
2023-02-02T23:42:11.132Z,100.00
2023-02-02T23:44:37.725Z,100.00
2023-02-02T23:47:04.830Z,100.00
2023-02-02T23:49:32.861Z,100.00
2023-02-02T23:52:00.223Z,100.00
2023-02-02T23:54:27.538Z,100.00
2023-02-02T23:56:54.257Z,100.00
2023-02-02T23:59:21.066Z,100.00
